sensor_id;sensor_type;location;lat;lon;timestamp;P1;durP1;ratioP1;P2;durP2;ratioP2
36839;SDS011;24406;51.640;9.566;2024-03-02T00:02:01;13.40;;;12.00;;
36839;SDS011;24406;51.640;9.566;2024-03-02T00:07:02;15.63;;;11.98;;
36839;SDS011;24406;51.640;9.566;2024-03-02T00:12:04;13.80;;;11.27;;
36839;SDS011;24406;51.640;9.566;2024-03-02T00:17:11;15.63;;;12.30;;
36839;SDS011;24406;51.640;9.566;2024-03-02T00:22:19;18.38;;;13.10;;
36839;SDS011;24406;51.640;9.566;2024-03-02T00:27:21;18.05;;;14.52;;
36839;SDS011;24406;51.640;9.566;2024-03-02T00:32:26;19.48;;;15.43;;
36839;SDS011;24406;51.640;9.566;2024-03-02T00:37:28;22.52;;;13.90;;
36839;SDS011;24406;51.640;9.566;2024-03-02T00:42:30;20.27;;;14.30;;
36839;SDS011;24406;51.640;9.566;2024-03-02T00:47:33;17.98;;;13.98;;
36839;SDS011;24406;51.640;9.566;2024-03-02T00:52:38;17.08;;;13.38;;
36839;SDS011;24406;51.640;9.566;2024-03-02T00:57:40;17.00;;;13.23;;
36839;SDS011;24406;51.640;9.566;2024-03-02T01:02:43;17.20;;;14.15;;
36839;SDS011;24406;51.640;9.566;2024-03-02T01:07:46;17.55;;;14.32;;
36839;SDS011;24406;51.640;9.566;2024-03-02T01:12:48;19.17;;;14.20;;
36839;SDS011;24406;51.640;9.566;2024-03-02T01:17:51;24.23;;;18.27;;
36839;SDS011;24406;51.640;9.566;2024-03-02T01:22:52;21.80;;;16.55;;
36839;SDS011;24406;51.640;9.566;2024-03-02T01:27:55;20.38;;;15.55;;
36839;SDS011;24406;51.640;9.566;2024-03-02T01:32:58;19.17;;;14.60;;
36839;SDS011;24406;51.640;9.566;2024-03-02T01:38:00;18.27;;;14.68;;
36839;SDS011;24406;51.640;9.566;2024-03-02T01:43:02;17.10;;;13.98;;
36839;SDS011;24406;51.640;9.566;2024-03-02T01:48:06;19.83;;;15.07;;
36839;SDS011;24406;51.640;9.566;2024-03-02T01:53:08;20.25;;;14.05;;
36839;SDS011;24406;51.640;9.566;2024-03-02T01:58:10;20.08;;;16.40;;
36839;SDS011;24406;51.640;9.566;2024-03-02T02:03:13;19.80;;;14.50;;
36839;SDS011;24406;51.640;9.566;2024-03-02T02:08:14;17.70;;;14.13;;
36839;SDS011;24406;51.640;9.566;2024-03-02T02:13:16;21.65;;;16.67;;
36839;SDS011;24406;51.640;9.566;2024-03-02T02:18:19;20.50;;;15.98;;
36839;SDS011;24406;51.640;9.566;2024-03-02T02:23:21;22.30;;;16.33;;
36839;SDS011;24406;51.640;9.566;2024-03-02T02:28:23;23.42;;;17.92;;
36839;SDS011;24406;51.640;9.566;2024-03-02T02:33:24;23.20;;;17.15;;
36839;SDS011;24406;51.640;9.566;2024-03-02T02:38:27;22.75;;;17.60;;
36839;SDS011;24406;51.640;9.566;2024-03-02T02:43:29;32.17;;;20.67;;
36839;SDS011;24406;51.640;9.566;2024-03-02T02:48:30;32.90;;;21.05;;
36839;SDS011;24406;51.640;9.566;2024-03-02T02:53:33;29.55;;;20.60;;
36839;SDS011;24406;51.640;9.566;2024-03-02T02:58:35;29.10;;;19.85;;
36839;SDS011;24406;51.640;9.566;2024-03-02T03:03:37;26.20;;;18.83;;
36839;SDS011;24406;51.640;9.566;2024-03-02T03:08:39;25.98;;;19.17;;
36839;SDS011;24406;51.640;9.566;2024-03-02T03:13:41;27.90;;;17.98;;
36839;SDS011;24406;51.640;9.566;2024-03-02T03:18:43;28.55;;;18.75;;
36839;SDS011;24406;51.640;9.566;2024-03-02T03:23:46;31.42;;;21.70;;
36839;SDS011;24406;51.640;9.566;2024-03-02T03:28:47;25.95;;;19.10;;
36839;SDS011;24406;51.640;9.566;2024-03-02T03:33:49;27.92;;;18.55;;
36839;SDS011;24406;51.640;9.566;2024-03-02T03:38:52;28.27;;;18.90;;
36839;SDS011;24406;51.640;9.566;2024-03-02T03:43:54;27.52;;;20.23;;
36839;SDS011;24406;51.640;9.566;2024-03-02T03:48:56;25.92;;;18.77;;
36839;SDS011;24406;51.640;9.566;2024-03-02T03:53:59;26.10;;;19.17;;
36839;SDS011;24406;51.640;9.566;2024-03-02T03:59:00;22.42;;;17.25;;
36839;SDS011;24406;51.640;9.566;2024-03-02T04:04:02;27.08;;;18.75;;
36839;SDS011;24406;51.640;9.566;2024-03-02T04:09:05;28.15;;;20.30;;
36839;SDS011;24406;51.640;9.566;2024-03-02T04:14:07;29.02;;;19.58;;
36839;SDS011;24406;51.640;9.566;2024-03-02T04:19:08;29.25;;;21.10;;
36839;SDS011;24406;51.640;9.566;2024-03-02T04:24:11;29.50;;;19.90;;
36839;SDS011;24406;51.640;9.566;2024-03-02T04:29:13;24.92;;;18.60;;
36839;SDS011;24406;51.640;9.566;2024-03-02T04:34:14;24.60;;;17.83;;
36839;SDS011;24406;51.640;9.566;2024-03-02T04:39:17;29.77;;;19.50;;
36839;SDS011;24406;51.640;9.566;2024-03-02T04:44:19;32.63;;;20.40;;
36839;SDS011;24406;51.640;9.566;2024-03-02T04:49:20;26.35;;;19.40;;
36839;SDS011;24406;51.640;9.566;2024-03-02T04:54:23;28.58;;;18.88;;
36839;SDS011;24406;51.640;9.566;2024-03-02T04:59:25;27.88;;;18.88;;
36839;SDS011;24406;51.640;9.566;2024-03-02T05:04:26;36.35;;;22.30;;
36839;SDS011;24406;51.640;9.566;2024-03-02T05:09:29;33.80;;;20.55;;
36839;SDS011;24406;51.640;9.566;2024-03-02T05:14:31;45.17;;;27.08;;
36839;SDS011;24406;51.640;9.566;2024-03-02T05:19:32;40.00;;;26.48;;
36839;SDS011;24406;51.640;9.566;2024-03-02T05:24:35;34.25;;;21.50;;
36839;SDS011;24406;51.640;9.566;2024-03-02T05:29:37;32.22;;;20.23;;
36839;SDS011;24406;51.640;9.566;2024-03-02T05:34:38;28.13;;;20.00;;
36839;SDS011;24406;51.640;9.566;2024-03-02T05:39:41;27.58;;;19.35;;
36839;SDS011;24406;51.640;9.566;2024-03-02T05:44:44;23.17;;;18.23;;
36839;SDS011;24406;51.640;9.566;2024-03-02T05:49:45;29.17;;;19.60;;
36839;SDS011;24406;51.640;9.566;2024-03-02T05:54:48;31.52;;;21.55;;
36839;SDS011;24406;51.640;9.566;2024-03-02T05:59:50;31.35;;;21.65;;
36839;SDS011;24406;51.640;9.566;2024-03-02T06:04:53;33.78;;;21.73;;
36839;SDS011;24406;51.640;9.566;2024-03-02T06:09:59;33.55;;;21.70;;
36839;SDS011;24406;51.640;9.566;2024-03-02T06:15:00;32.05;;;22.45;;
36839;SDS011;24406;51.640;9.566;2024-03-02T06:20:02;36.03;;;24.52;;
36839;SDS011;24406;51.640;9.566;2024-03-02T06:25:05;31.50;;;22.95;;
36839;SDS011;24406;51.640;9.566;2024-03-02T06:30:08;27.85;;;20.83;;
36839;SDS011;24406;51.640;9.566;2024-03-02T06:35:10;34.55;;;22.08;;
36839;SDS011;24406;51.640;9.566;2024-03-02T06:40:15;31.13;;;21.40;;
36839;SDS011;24406;51.640;9.566;2024-03-02T06:45:17;37.10;;;23.80;;
36839;SDS011;24406;51.640;9.566;2024-03-02T06:50:18;29.00;;;21.33;;
36839;SDS011;24406;51.640;9.566;2024-03-02T06:55:24;35.83;;;24.40;;
36839;SDS011;24406;51.640;9.566;2024-03-02T07:00:26;33.30;;;24.95;;
36839;SDS011;24406;51.640;9.566;2024-03-02T07:05:28;32.00;;;24.45;;
36839;SDS011;24406;51.640;9.566;2024-03-02T07:10:32;36.58;;;23.55;;
36839;SDS011;24406;51.640;9.566;2024-03-02T07:15:34;33.47;;;23.77;;
36839;SDS011;24406;51.640;9.566;2024-03-02T07:20:54;33.72;;;24.25;;
36839;SDS011;24406;51.640;9.566;2024-03-02T07:26:00;36.78;;;24.77;;
36839;SDS011;24406;51.640;9.566;2024-03-02T07:36:08;35.85;;;24.65;;
36839;SDS011;24406;51.640;9.566;2024-03-02T07:41:11;38.03;;;28.55;;
36839;SDS011;24406;51.640;9.566;2024-03-02T07:46:12;36.13;;;26.88;;
36839;SDS011;24406;51.640;9.566;2024-03-02T07:51:14;34.03;;;25.27;;
36839;SDS011;24406;51.640;9.566;2024-03-02T07:56:18;32.95;;;25.10;;
36839;SDS011;24406;51.640;9.566;2024-03-02T08:01:22;35.28;;;23.90;;
36839;SDS011;24406;51.640;9.566;2024-03-02T08:06:24;34.65;;;24.50;;
36839;SDS011;24406;51.640;9.566;2024-03-02T08:11:29;40.40;;;25.63;;
36839;SDS011;24406;51.640;9.566;2024-03-02T08:16:31;47.20;;;31.73;;
36839;SDS011;24406;51.640;9.566;2024-03-02T08:21:33;38.60;;;28.00;;
36839;SDS011;24406;51.640;9.566;2024-03-02T08:26:36;40.22;;;32.33;;
36839;SDS011;24406;51.640;9.566;2024-03-02T08:31:38;40.88;;;29.15;;
36839;SDS011;24406;51.640;9.566;2024-03-02T08:36:39;37.13;;;27.70;;
36839;SDS011;24406;51.640;9.566;2024-03-02T08:41:44;54.58;;;33.00;;
36839;SDS011;24406;51.640;9.566;2024-03-02T08:46:45;57.63;;;35.00;;
36839;SDS011;24406;51.640;9.566;2024-03-02T08:51:47;46.15;;;32.03;;
36839;SDS011;24406;51.640;9.566;2024-03-02T08:56:56;47.92;;;31.25;;
36839;SDS011;24406;51.640;9.566;2024-03-02T09:01:57;50.70;;;35.08;;
36839;SDS011;24406;51.640;9.566;2024-03-02T09:06:59;54.78;;;36.28;;
36839;SDS011;24406;51.640;9.566;2024-03-02T09:12:06;50.78;;;35.10;;
36839;SDS011;24406;51.640;9.566;2024-03-02T09:17:08;46.55;;;32.35;;
36839;SDS011;24406;51.640;9.566;2024-03-02T09:22:13;49.17;;;32.75;;
36839;SDS011;24406;51.640;9.566;2024-03-02T09:32:27;38.42;;;28.35;;
36839;SDS011;24406;51.640;9.566;2024-03-02T09:37:30;34.17;;;24.65;;
36839;SDS011;24406;51.640;9.566;2024-03-02T09:42:34;82.22;;;73.35;;
36839;SDS011;24406;51.640;9.566;2024-03-02T09:47:41;27.98;;;20.50;;
36839;SDS011;24406;51.640;9.566;2024-03-02T09:52:51;32.20;;;23.03;;
36839;SDS011;24406;51.640;9.566;2024-03-02T10:17:03;22.90;;;17.08;;
36839;SDS011;24406;51.640;9.566;2024-03-02T10:22:08;25.23;;;19.02;;
36839;SDS011;24406;51.640;9.566;2024-03-02T10:27:14;28.65;;;21.63;;
36839;SDS011;24406;51.640;9.566;2024-03-02T10:32:17;29.42;;;22.52;;
36839;SDS011;24406;51.640;9.566;2024-03-02T10:37:18;27.83;;;22.20;;
36839;SDS011;24406;51.640;9.566;2024-03-02T10:42:23;26.90;;;20.60;;
36839;SDS011;24406;51.640;9.566;2024-03-02T10:47:25;22.75;;;18.65;;
36839;SDS011;24406;51.640;9.566;2024-03-02T10:52:28;20.17;;;16.95;;
36839;SDS011;24406;51.640;9.566;2024-03-02T10:57:40;12.27;;;9.18;;
36839;SDS011;24406;51.640;9.566;2024-03-02T11:02:49;8.88;;;6.80;;
36839;SDS011;24406;51.640;9.566;2024-03-02T11:07:52;7.47;;;6.63;;
36839;SDS011;24406;51.640;9.566;2024-03-02T11:12:58;7.20;;;6.43;;
36839;SDS011;24406;51.640;9.566;2024-03-02T11:18:03;8.52;;;6.63;;
36839;SDS011;24406;51.640;9.566;2024-03-02T11:23:08;7.72;;;5.75;;
36839;SDS011;24406;51.640;9.566;2024-03-02T11:28:12;6.80;;;6.13;;
36839;SDS011;24406;51.640;9.566;2024-03-02T11:33:13;7.13;;;5.53;;
36839;SDS011;24406;51.640;9.566;2024-03-02T11:38:15;6.20;;;5.25;;
36839;SDS011;24406;51.640;9.566;2024-03-02T11:43:18;5.38;;;4.85;;
36839;SDS011;24406;51.640;9.566;2024-03-02T11:48:21;7.50;;;5.60;;
36839;SDS011;24406;51.640;9.566;2024-03-02T11:53:23;4.93;;;4.38;;
36839;SDS011;24406;51.640;9.566;2024-03-02T11:58:26;5.07;;;4.68;;
36839;SDS011;24406;51.640;9.566;2024-03-02T12:03:28;5.32;;;4.22;;
36839;SDS011;24406;51.640;9.566;2024-03-02T12:08:30;4.57;;;4.15;;
36839;SDS011;24406;51.640;9.566;2024-03-02T12:13:33;4.75;;;4.28;;
36839;SDS011;24406;51.640;9.566;2024-03-02T12:18:35;4.78;;;4.22;;
36839;SDS011;24406;51.640;9.566;2024-03-02T12:23:36;7.97;;;6.28;;
36839;SDS011;24406;51.640;9.566;2024-03-02T12:28:39;4.75;;;4.10;;
36839;SDS011;24406;51.640;9.566;2024-03-02T12:33:41;3.72;;;3.15;;
36839;SDS011;24406;51.640;9.566;2024-03-02T12:38:43;3.05;;;2.75;;
36839;SDS011;24406;51.640;9.566;2024-03-02T12:43:46;3.70;;;3.08;;
36839;SDS011;24406;51.640;9.566;2024-03-02T12:48:48;3.08;;;2.88;;
36839;SDS011;24406;51.640;9.566;2024-03-02T12:53:52;2.97;;;2.67;;
36839;SDS011;24406;51.640;9.566;2024-03-02T12:58:56;2.70;;;2.50;;
36839;SDS011;24406;51.640;9.566;2024-03-02T13:03:59;3.15;;;2.85;;
36839;SDS011;24406;51.640;9.566;2024-03-02T13:09:02;4.50;;;3.45;;
36839;SDS011;24406;51.640;9.566;2024-03-02T13:14:06;2.50;;;2.30;;
36839;SDS011;24406;51.640;9.566;2024-03-02T13:19:07;3.70;;;3.40;;
36839;SDS011;24406;51.640;9.566;2024-03-02T13:24:09;2.75;;;2.40;;
36839;SDS011;24406;51.640;9.566;2024-03-02T13:29:12;3.58;;;2.83;;
36839;SDS011;24406;51.640;9.566;2024-03-02T13:34:13;4.85;;;4.40;;
36839;SDS011;24406;51.640;9.566;2024-03-02T13:39:15;2.53;;;2.33;;
36839;SDS011;24406;51.640;9.566;2024-03-02T13:44:18;4.20;;;3.55;;
36839;SDS011;24406;51.640;9.566;2024-03-02T13:49:19;5.10;;;4.60;;
36839;SDS011;24406;51.640;9.566;2024-03-02T13:54:21;4.45;;;3.55;;
36839;SDS011;24406;51.640;9.566;2024-03-02T13:59:24;4.60;;;4.20;;
36839;SDS011;24406;51.640;9.566;2024-03-02T14:04:26;5.38;;;4.88;;
36839;SDS011;24406;51.640;9.566;2024-03-02T14:09:27;5.55;;;5.00;;
36839;SDS011;24406;51.640;9.566;2024-03-02T14:14:31;5.32;;;4.82;;
36839;SDS011;24406;51.640;9.566;2024-03-02T14:19:32;7.05;;;4.10;;
36839;SDS011;24406;51.640;9.566;2024-03-02T14:24:34;4.35;;;3.78;;
36839;SDS011;24406;51.640;9.566;2024-03-02T14:29:38;4.78;;;4.28;;
36839;SDS011;24406;51.640;9.566;2024-03-02T14:34:40;5.05;;;3.88;;
36839;SDS011;24406;51.640;9.566;2024-03-02T14:39:42;5.18;;;4.68;;
36839;SDS011;24406;51.640;9.566;2024-03-02T14:44:45;5.25;;;4.45;;
36839;SDS011;24406;51.640;9.566;2024-03-02T14:49:46;4.80;;;4.30;;
36839;SDS011;24406;51.640;9.566;2024-03-02T14:54:48;6.20;;;4.82;;
36839;SDS011;24406;51.640;9.566;2024-03-02T14:59:55;7.88;;;4.53;;
36839;SDS011;24406;51.640;9.566;2024-03-02T15:04:56;5.55;;;4.85;;
36839;SDS011;24406;51.640;9.566;2024-03-02T15:10:00;6.68;;;4.35;;
36839;SDS011;24406;51.640;9.566;2024-03-02T15:15:05;5.05;;;4.55;;
36839;SDS011;24406;51.640;9.566;2024-03-02T15:20:08;4.95;;;3.88;;
36839;SDS011;24406;51.640;9.566;2024-03-02T15:25:10;5.82;;;3.92;;
36839;SDS011;24406;51.640;9.566;2024-03-02T15:30:13;5.10;;;4.13;;
36839;SDS011;24406;51.640;9.566;2024-03-02T15:35:15;5.15;;;4.00;;
36839;SDS011;24406;51.640;9.566;2024-03-02T15:40:17;4.25;;;3.85;;
36839;SDS011;24406;51.640;9.566;2024-03-02T15:45:20;3.95;;;3.55;;
36839;SDS011;24406;51.640;9.566;2024-03-02T15:50:21;4.40;;;3.05;;
36839;SDS011;24406;51.640;9.566;2024-03-02T15:55:23;4.13;;;3.22;;
36839;SDS011;24406;51.640;9.566;2024-03-02T16:00:26;2.50;;;2.30;;
36839;SDS011;24406;51.640;9.566;2024-03-02T16:05:28;2.75;;;2.35;;
36839;SDS011;24406;51.640;9.566;2024-03-02T16:10:29;2.35;;;2.03;;
36839;SDS011;24406;51.640;9.566;2024-03-02T16:15:32;2.28;;;1.75;;
36839;SDS011;24406;51.640;9.566;2024-03-02T16:20:34;1.65;;;1.55;;
36839;SDS011;24406;51.640;9.566;2024-03-02T16:25:36;2.22;;;1.60;;
36839;SDS011;24406;51.640;9.566;2024-03-02T16:30:42;1.88;;;1.65;;
36839;SDS011;24406;51.640;9.566;2024-03-02T16:35:43;3.42;;;2.50;;
36839;SDS011;24406;51.640;9.566;2024-03-02T16:40:47;3.55;;;3.25;;
36839;SDS011;24406;51.640;9.566;2024-03-02T16:45:50;5.10;;;3.58;;
36839;SDS011;24406;51.640;9.566;2024-03-02T16:50:52;3.13;;;2.83;;
36839;SDS011;24406;51.640;9.566;2024-03-02T16:55:53;3.53;;;3.22;;
36839;SDS011;24406;51.640;9.566;2024-03-02T17:00:56;4.50;;;4.10;;
36839;SDS011;24406;51.640;9.566;2024-03-02T17:05:57;5.88;;;5.00;;
36839;SDS011;24406;51.640;9.566;2024-03-02T17:10:59;8.38;;;5.15;;
36839;SDS011;24406;51.640;9.566;2024-03-02T17:16:02;6.95;;;6.13;;
36839;SDS011;24406;51.640;9.566;2024-03-02T17:21:04;17.73;;;15.98;;
36839;SDS011;24406;51.640;9.566;2024-03-02T17:26:05;10.98;;;7.18;;
36839;SDS011;24406;51.640;9.566;2024-03-02T17:31:08;7.90;;;6.20;;
36839;SDS011;24406;51.640;9.566;2024-03-02T17:36:10;13.90;;;10.73;;
36839;SDS011;24406;51.640;9.566;2024-03-02T17:41:13;14.30;;;11.23;;
36839;SDS011;24406;51.640;9.566;2024-03-02T17:46:16;15.85;;;11.45;;
36839;SDS011;24406;51.640;9.566;2024-03-02T17:51:17;13.23;;;10.88;;
36839;SDS011;24406;51.640;9.566;2024-03-02T17:56:18;15.38;;;10.98;;
36839;SDS011;24406;51.640;9.566;2024-03-02T18:01:21;11.73;;;10.48;;
36839;SDS011;24406;51.640;9.566;2024-03-02T18:06:23;13.07;;;10.15;;
36839;SDS011;24406;51.640;9.566;2024-03-02T18:11:24;14.00;;;11.07;;
36839;SDS011;24406;51.640;9.566;2024-03-02T18:16:27;15.70;;;10.98;;
36839;SDS011;24406;51.640;9.566;2024-03-02T18:21:29;17.15;;;13.32;;
36839;SDS011;24406;51.640;9.566;2024-03-02T18:26:30;11.02;;;9.45;;
36839;SDS011;24406;51.640;9.566;2024-03-02T18:31:34;14.15;;;10.43;;
36839;SDS011;24406;51.640;9.566;2024-03-02T18:36:36;13.77;;;11.27;;
36839;SDS011;24406;51.640;9.566;2024-03-02T18:41:37;49.05;;;35.35;;
36839;SDS011;24406;51.640;9.566;2024-03-02T18:46:40;14.43;;;11.50;;
36839;SDS011;24406;51.640;9.566;2024-03-02T18:51:42;14.52;;;11.85;;
36839;SDS011;24406;51.640;9.566;2024-03-02T18:56:44;14.65;;;12.27;;
36839;SDS011;24406;51.640;9.566;2024-03-02T19:01:47;17.85;;;12.02;;
36839;SDS011;24406;51.640;9.566;2024-03-02T19:06:49;16.67;;;13.35;;
36839;SDS011;24406;51.640;9.566;2024-03-02T19:11:51;16.98;;;13.38;;
36839;SDS011;24406;51.640;9.566;2024-03-02T19:16:53;15.23;;;12.02;;
36839;SDS011;24406;51.640;9.566;2024-03-02T19:21:55;17.85;;;13.95;;
36839;SDS011;24406;51.640;9.566;2024-03-02T19:26:57;19.45;;;12.93;;
36839;SDS011;24406;51.640;9.566;2024-03-02T19:32:25;14.57;;;10.90;;
36839;SDS011;24406;51.640;9.566;2024-03-02T19:37:35;11.88;;;9.38;;
36839;SDS011;24406;51.640;9.566;2024-03-02T19:48:08;15.30;;;11.13;;
36839;SDS011;24406;51.640;9.566;2024-03-02T19:53:23;20.25;;;15.57;;
36839;SDS011;24406;51.640;9.566;2024-03-02T19:58:40;27.17;;;19.25;;
36839;SDS011;24406;51.640;9.566;2024-03-02T20:04:02;34.58;;;22.42;;
36839;SDS011;24406;51.640;9.566;2024-03-02T20:09:21;33.35;;;22.75;;
36839;SDS011;24406;51.640;9.566;2024-03-02T20:14:32;20.10;;;15.02;;
36839;SDS011;24406;51.640;9.566;2024-03-02T20:19:48;17.42;;;12.15;;
36839;SDS011;24406;51.640;9.566;2024-03-02T20:24:52;38.42;;;16.90;;
36839;SDS011;24406;51.640;9.566;2024-03-02T20:30:09;34.05;;;21.88;;
36839;SDS011;24406;51.640;9.566;2024-03-02T20:35:28;16.55;;;12.10;;
36839;SDS011;24406;51.640;9.566;2024-03-02T20:40:42;14.30;;;10.57;;
36839;SDS011;24406;51.640;9.566;2024-03-02T20:45:54;13.02;;;10.57;;
36839;SDS011;24406;51.640;9.566;2024-03-02T20:51:18;15.57;;;10.85;;
36839;SDS011;24406;51.640;9.566;2024-03-02T21:01:55;19.85;;;14.52;;
36839;SDS011;24406;51.640;9.566;2024-03-02T21:07:16;20.92;;;13.75;;
36839;SDS011;24406;51.640;9.566;2024-03-02T21:12:23;12.55;;;10.00;;
36839;SDS011;24406;51.640;9.566;2024-03-02T21:17:28;21.52;;;15.73;;
36839;SDS011;24406;51.640;9.566;2024-03-02T21:22:57;20.40;;;14.48;;
36839;SDS011;24406;51.640;9.566;2024-03-02T21:28:11;32.20;;;22.30;;
36839;SDS011;24406;51.640;9.566;2024-03-02T21:33:35;16.25;;;12.40;;
36839;SDS011;24406;51.640;9.566;2024-03-02T21:45:16;28.45;;;19.35;;
36839;SDS011;24406;51.640;9.566;2024-03-02T21:50:32;30.75;;;20.67;;
36839;SDS011;24406;51.640;9.566;2024-03-02T21:55:45;26.08;;;17.58;;
36839;SDS011;24406;51.640;9.566;2024-03-02T22:00:49;25.25;;;17.88;;
36839;SDS011;24406;51.640;9.566;2024-03-02T22:05:58;23.52;;;18.00;;
36839;SDS011;24406;51.640;9.566;2024-03-02T22:11:07;21.55;;;15.52;;
36839;SDS011;24406;51.640;9.566;2024-03-02T22:16:24;14.80;;;11.60;;
36839;SDS011;24406;51.640;9.566;2024-03-02T22:21:45;20.52;;;15.65;;
36839;SDS011;24406;51.640;9.566;2024-03-02T22:27:04;25.30;;;18.60;;
36839;SDS011;24406;51.640;9.566;2024-03-02T22:32:26;23.23;;;16.13;;
36839;SDS011;24406;51.640;9.566;2024-03-02T22:37:43;20.77;;;16.15;;
36839;SDS011;24406;51.640;9.566;2024-03-02T22:43:01;23.50;;;15.77;;
36839;SDS011;24406;51.640;9.566;2024-03-02T22:48:06;18.35;;;14.23;;
36839;SDS011;24406;51.640;9.566;2024-03-02T22:53:08;14.25;;;11.60;;
36839;SDS011;24406;51.640;9.566;2024-03-02T22:58:11;14.68;;;12.25;;
36839;SDS011;24406;51.640;9.566;2024-03-02T23:03:13;25.67;;;18.25;;
36839;SDS011;24406;51.640;9.566;2024-03-02T23:08:15;24.73;;;17.35;;
36839;SDS011;24406;51.640;9.566;2024-03-02T23:13:18;23.63;;;15.88;;
36839;SDS011;24406;51.640;9.566;2024-03-02T23:18:20;19.67;;;14.48;;
36839;SDS011;24406;51.640;9.566;2024-03-02T23:23:22;20.92;;;14.65;;
36839;SDS011;24406;51.640;9.566;2024-03-02T23:28:25;22.45;;;14.82;;
36839;SDS011;24406;51.640;9.566;2024-03-02T23:33:26;18.55;;;13.52;;
36839;SDS011;24406;51.640;9.566;2024-03-02T23:38:28;19.50;;;14.07;;
36839;SDS011;24406;51.640;9.566;2024-03-02T23:43:31;17.88;;;11.45;;
36839;SDS011;24406;51.640;9.566;2024-03-02T23:48:33;22.52;;;14.77;;
36839;SDS011;24406;51.640;9.566;2024-03-02T23:53:34;20.00;;;14.57;;
36839;SDS011;24406;51.640;9.566;2024-03-02T23:58:37;21.70;;;15.23;;
